sensor_id;sensor_type;location;lat;lon;timestamp;pressure;altitude;pressure_sealevel;temperature;humidity
64933;BME280;51446;53.850;10.662;2023-07-29T00:02:16;100670.16;;;16.27;100.00
64933;BME280;51446;53.850;10.662;2023-07-29T00:04:41;100664.91;;;16.22;100.00
64933;BME280;51446;53.850;10.662;2023-07-29T00:07:07;100663.06;;;16.29;100.00
64933;BME280;51446;53.850;10.662;2023-07-29T00:09:32;100665.72;;;16.27;100.00
64933;BME280;51446;53.850;10.662;2023-07-29T00:11:57;100674.38;;;16.45;100.00
64933;BME280;51446;53.850;10.662;2023-07-29T00:14:22;100680.56;;;16.47;100.00
64933;BME280;51446;53.850;10.662;2023-07-29T00:16:48;100684.94;;;16.50;100.00
64933;BME280;51446;53.850;10.662;2023-07-29T00:19:13;100684.09;;;16.46;100.00
64933;BME280;51446;53.850;10.662;2023-07-29T00:21:38;100684.94;;;16.50;100.00
64933;BME280;51446;53.850;10.662;2023-07-29T00:24:03;100678.75;;;16.49;100.00
64933;BME280;51446;53.850;10.662;2023-07-29T00:26:29;100673.44;;;16.52;100.00
64933;BME280;51446;53.850;10.662;2023-07-29T00:28:57;100660.31;;;16.41;100.00
64933;BME280;51446;53.850;10.662;2023-07-29T00:31:22;100657.72;;;16.38;100.00
64933;BME280;51446;53.850;10.662;2023-07-29T00:33:48;100651.50;;;16.38;100.00
64933;BME280;51446;53.850;10.662;2023-07-29T00:36:13;100656.78;;;16.42;100.00
64933;BME280;51446;53.850;10.662;2023-07-29T00:38:38;100650.56;;;16.45;100.00
64933;BME280;51446;53.850;10.662;2023-07-29T00:41:04;100654.06;;;16.50;100.00
64933;BME280;51446;53.850;10.662;2023-07-29T00:43:30;100642.69;;;16.39;100.00
64933;BME280;51446;53.850;10.662;2023-07-29T00:45:56;100655.03;;;16.41;100.00
64933;BME280;51446;53.850;10.662;2023-07-29T00:48:22;100645.47;;;16.28;100.00
64933;BME280;51446;53.850;10.662;2023-07-29T00:50:48;100647.25;;;16.24;100.00
64933;BME280;51446;53.850;10.662;2023-07-29T00:53:14;100644.59;;;16.24;100.00
64933;BME280;51446;53.850;10.662;2023-07-29T00:55:40;100641.97;;;16.23;100.00
64933;BME280;51446;53.850;10.662;2023-07-29T00:58:06;100635.84;;;16.19;100.00
64933;BME280;51446;53.850;10.662;2023-07-29T01:00:31;100634.16;;;16.10;100.00
64933;BME280;51446;53.850;10.662;2023-07-29T01:02:57;100627.97;;;16.11;100.00
64933;BME280;51446;53.850;10.662;2023-07-29T01:05:30;100630.56;;;16.15;100.00
64933;BME280;51446;53.850;10.662;2023-07-29T01:08:19;100624.38;;;16.19;100.00
64933;BME280;51446;53.850;10.662;2023-07-29T01:11:01;100633.09;;;16.28;100.00
64933;BME280;51446;53.850;10.662;2023-07-29T01:15:56;100624.28;;;16.28;100.00
64933;BME280;51446;53.850;10.662;2023-07-29T01:18:28;100626.09;;;16.23;100.00
64933;BME280;51446;53.850;10.662;2023-07-29T01:21:03;100622.66;;;16.15;100.00
64933;BME280;51446;53.850;10.662;2023-07-29T01:23:33;100624.50;;;16.06;100.00
64933;BME280;51446;53.850;10.662;2023-07-29T01:25:58;100630.66;;;16.08;100.00
64933;BME280;51446;53.850;10.662;2023-07-29T01:28:24;100628.94;;;16.01;100.00
64933;BME280;51446;53.850;10.662;2023-07-29T01:30:53;100624.53;;;16.03;100.00
64933;BME280;51446;53.850;10.662;2023-07-29T01:33:26;100623.75;;;15.92;100.00
64933;BME280;51446;53.850;10.662;2023-07-29T01:35:58;100614.97;;;15.85;100.00
64933;BME280;51446;53.850;10.662;2023-07-29T01:38:33;100624.69;;;15.86;100.00
64933;BME280;51446;53.850;10.662;2023-07-29T01:41:04;100627.38;;;15.78;100.00
64933;BME280;51446;53.850;10.662;2023-07-29T01:43:29;100620.34;;;15.79;100.00
64933;BME280;51446;53.850;10.662;2023-07-29T01:45:55;100621.22;;;15.73;100.00
64933;BME280;51446;53.850;10.662;2023-07-29T01:48:20;100618.63;;;15.64;100.00
64933;BME280;51446;53.850;10.662;2023-07-29T01:50:46;100612.47;;;15.64;100.00
64933;BME280;51446;53.850;10.662;2023-07-29T01:53:11;100602.84;;;15.55;100.00
64933;BME280;51446;53.850;10.662;2023-07-29T01:55:36;100610.78;;;15.56;100.00
64933;BME280;51446;53.850;10.662;2023-07-29T01:58:02;100607.22;;;15.60;100.00
64933;BME280;51446;53.850;10.662;2023-07-29T02:00:27;100604.53;;;15.65;100.00
64933;BME280;51446;53.850;10.662;2023-07-29T02:02:52;100609.75;;;15.74;100.00
64933;BME280;51446;53.850;10.662;2023-07-29T02:05:17;100600.06;;;15.75;100.00
64933;BME280;51446;53.850;10.662;2023-07-29T02:07:43;100598.28;;;15.75;100.00
64933;BME280;51446;53.850;10.662;2023-07-29T02:10:08;100581.59;;;15.66;100.00
64933;BME280;51446;53.850;10.662;2023-07-29T02:12:33;100587.84;;;15.61;100.00
64933;BME280;51446;53.850;10.662;2023-07-29T02:14:59;100580.72;;;15.68;100.00
64933;BME280;51446;53.850;10.662;2023-07-29T02:17:24;100579.78;;;15.75;100.00
64933;BME280;51446;53.850;10.662;2023-07-29T02:19:51;100581.47;;;15.87;100.00
64933;BME280;51446;53.850;10.662;2023-07-29T02:22:17;100589.34;;;15.93;100.00
64933;BME280;51446;53.850;10.662;2023-07-29T02:24:43;100587.50;;;16.00;100.00
64933;BME280;51446;53.850;10.662;2023-07-29T02:27:08;100595.41;;;16.06;100.00
64933;BME280;51446;53.850;10.662;2023-07-29T02:29:33;100596.19;;;16.18;100.00
64933;BME280;51446;53.850;10.662;2023-07-29T02:31:59;100594.38;;;16.21;100.00
64933;BME280;51446;53.850;10.662;2023-07-29T02:34:25;100588.13;;;16.27;100.00
64933;BME280;51446;53.850;10.662;2023-07-29T02:36:50;100585.41;;;16.33;100.00
64933;BME280;51446;53.850;10.662;2023-07-29T02:39:16;100587.13;;;16.39;100.00
64933;BME280;51446;53.850;10.662;2023-07-29T02:41:41;100579.19;;;16.39;100.00
64933;BME280;51446;53.850;10.662;2023-07-29T02:44:06;100578.34;;;16.35;100.00
64933;BME280;51446;53.850;10.662;2023-07-29T02:46:31;100573.13;;;16.27;100.00
64933;BME280;51446;53.850;10.662;2023-07-29T02:48:57;100568.72;;;16.29;100.00
64933;BME280;51446;53.850;10.662;2023-07-29T02:51:22;100578.47;;;16.23;100.00
64933;BME280;51446;53.850;10.662;2023-07-29T02:53:47;100578.47;;;16.23;100.00
64933;BME280;51446;53.850;10.662;2023-07-29T02:56:13;100572.25;;;16.27;100.00
64933;BME280;51446;53.850;10.662;2023-07-29T02:58:38;100576.63;;;16.31;100.00
64933;BME280;51446;53.850;10.662;2023-07-29T03:01:05;100566.00;;;16.34;100.00
64933;BME280;51446;53.850;10.662;2023-07-29T03:03:31;100574.75;;;16.41;100.00
64933;BME280;51446;53.850;10.662;2023-07-29T03:06:02;100560.59;;;16.43;100.00
64933;BME280;51446;53.850;10.662;2023-07-29T03:08:27;100578.16;;;16.49;100.00
64933;BME280;51446;53.850;10.662;2023-07-29T03:10:54;100581.69;;;16.51;100.00
64933;BME280;51446;53.850;10.662;2023-07-29T03:13:19;100588.72;;;16.54;100.00
64933;BME280;51446;53.850;10.662;2023-07-29T03:15:44;100603.63;;;16.59;100.00
64933;BME280;51446;53.850;10.662;2023-07-29T03:18:10;100600.03;;;16.65;100.00
64933;BME280;51446;53.850;10.662;2023-07-29T03:20:35;100599.13;;;16.68;100.00
64933;BME280;51446;53.850;10.662;2023-07-29T03:23:00;100601.72;;;16.75;100.00
64933;BME280;51446;53.850;10.662;2023-07-29T03:25:26;100600.88;;;16.70;100.00
64933;BME280;51446;53.850;10.662;2023-07-29T03:27:51;100597.31;;;16.74;100.00
64933;BME280;51446;53.850;10.662;2023-07-29T03:30:21;100587.75;;;16.62;100.00
64933;BME280;51446;53.850;10.662;2023-07-29T03:32:47;100594.00;;;16.57;100.00
64933;BME280;51446;53.850;10.662;2023-07-29T03:35:12;100588.63;;;16.61;100.00
64933;BME280;51446;53.850;10.662;2023-07-29T03:37:38;100584.94;;;16.73;100.00
64933;BME280;51446;53.850;10.662;2023-07-29T03:40:03;100582.38;;;16.67;100.00
64933;BME280;51446;53.850;10.662;2023-07-29T03:42:29;100581.56;;;16.60;100.00
64933;BME280;51446;53.850;10.662;2023-07-29T03:44:54;100595.66;;;16.65;100.00
64933;BME280;51446;53.850;10.662;2023-07-29T03:47:20;100580.59;;;16.68;100.00
64933;BME280;51446;53.850;10.662;2023-07-29T03:49:45;100583.19;;;16.75;100.00
64933;BME280;51446;53.850;10.662;2023-07-29T03:52:10;100577.75;;;16.83;100.00
64933;BME280;51446;53.850;10.662;2023-07-29T03:54:35;100577.75;;;16.85;100.00
64933;BME280;51446;53.850;10.662;2023-07-29T03:57:01;100578.66;;;16.82;100.00
64933;BME280;51446;53.850;10.662;2023-07-29T03:59:26;100586.56;;;16.90;100.00
64933;BME280;51446;53.850;10.662;2023-07-29T04:01:51;100581.22;;;16.87;100.00
64933;BME280;51446;53.850;10.662;2023-07-29T04:04:17;100582.91;;;16.95;100.00
64933;BME280;51446;53.850;10.662;2023-07-29T04:06:42;100581.97;;;16.99;100.00
64933;BME280;51446;53.850;10.662;2023-07-29T04:09:07;100569.75;;;16.89;100.00
64933;BME280;51446;53.850;10.662;2023-07-29T04:11:33;100575.06;;;16.89;100.00
64933;BME280;51446;53.850;10.662;2023-07-29T04:13:58;100571.47;;;16.93;100.00
64933;BME280;51446;53.850;10.662;2023-07-29T04:16:24;100574.06;;;16.96;100.00
64933;BME280;51446;53.850;10.662;2023-07-29T04:18:49;100559.09;;;16.94;100.00
64933;BME280;51446;53.850;10.662;2023-07-29T04:21:14;100559.91;;;17.01;100.00
64933;BME280;51446;53.850;10.662;2023-07-29T04:23:40;100566.97;;;17.02;100.00
64933;BME280;51446;53.850;10.662;2023-07-29T04:26:05;100572.09;;;17.11;100.00
64933;BME280;51446;53.850;10.662;2023-07-29T04:28:31;100572.03;;;17.19;100.00
64933;BME280;51446;53.850;10.662;2023-07-29T04:30:56;100571.09;;;17.20;100.00
64933;BME280;51446;53.850;10.662;2023-07-29T04:33:21;100561.22;;;17.31;100.00
64933;BME280;51446;53.850;10.662;2023-07-29T04:35:46;100561.22;;;17.31;100.00
64933;BME280;51446;53.850;10.662;2023-07-29T04:38:12;100556.66;;;17.41;100.00
64933;BME280;51446;53.850;10.662;2023-07-29T04:40:37;100558.13;;;17.57;100.00
64933;BME280;51446;53.850;10.662;2023-07-29T04:43:02;100553.44;;;17.75;100.00
64933;BME280;51446;53.850;10.662;2023-07-29T04:45:28;100550.78;;;17.73;100.00
64933;BME280;51446;53.850;10.662;2023-07-29T04:47:54;100550.03;;;17.66;100.00
64933;BME280;51446;53.850;10.662;2023-07-29T04:50:20;100551.00;;;17.62;100.00
64933;BME280;51446;53.850;10.662;2023-07-29T04:52:45;100552.69;;;17.66;100.00
64933;BME280;51446;53.850;10.662;2023-07-29T04:55:10;100543.84;;;17.66;100.00
64933;BME280;51446;53.850;10.662;2023-07-29T04:57:35;100551.88;;;17.61;100.00
64933;BME280;51446;53.850;10.662;2023-07-29T05:00:02;100559.78;;;17.64;100.00
64933;BME280;51446;53.850;10.662;2023-07-29T05:02:27;100554.44;;;17.69;100.00
64933;BME280;51446;53.850;10.662;2023-07-29T05:04:53;100554.34;;;17.74;100.00
64933;BME280;51446;53.850;10.662;2023-07-29T05:07:18;100549.91;;;17.74;100.00
64933;BME280;51446;53.850;10.662;2023-07-29T05:09:43;100551.47;;;17.84;100.00
64933;BME280;51446;53.850;10.662;2023-07-29T05:12:09;100548.78;;;17.91;100.00
64933;BME280;51446;53.850;10.662;2023-07-29T05:14:34;100540.31;;;18.17;100.00
64933;BME280;51446;53.850;10.662;2023-07-29T05:16:59;100527.91;;;18.17;100.00
64933;BME280;51446;53.850;10.662;2023-07-29T05:19:26;100545.47;;;18.25;100.00
64933;BME280;51446;53.850;10.662;2023-07-29T05:21:51;100542.59;;;18.37;100.00
64933;BME280;51446;53.850;10.662;2023-07-29T05:24:16;100535.63;;;18.31;100.00
64933;BME280;51446;53.850;10.662;2023-07-29T05:26:42;100535.47;;;18.37;100.00
64933;BME280;51446;53.850;10.662;2023-07-29T05:29:07;100538.97;;;18.41;100.00
64933;BME280;51446;53.850;10.662;2023-07-29T05:31:32;100528.38;;;18.40;100.00
64933;BME280;51446;53.850;10.662;2023-07-29T05:33:58;100526.31;;;18.54;100.00
64933;BME280;51446;53.850;10.662;2023-07-29T05:36:24;100537.00;;;18.49;100.00
64933;BME280;51446;53.850;10.662;2023-07-29T05:38:49;100543.31;;;18.45;100.00
64933;BME280;51446;53.850;10.662;2023-07-29T05:41:15;100550.25;;;18.52;100.00
64933;BME280;51446;53.850;10.662;2023-07-29T05:43:40;100538.88;;;18.46;100.00
64933;BME280;51446;53.850;10.662;2023-07-29T05:46:08;100539.81;;;18.42;100.00
64933;BME280;51446;53.850;10.662;2023-07-29T05:48:33;100544.31;;;18.38;100.00
64933;BME280;51446;53.850;10.662;2023-07-29T05:50:59;100540.88;;;18.33;100.00
64933;BME280;51446;53.850;10.662;2023-07-29T05:53:24;100541.59;;;18.43;100.00
64933;BME280;51446;53.850;10.662;2023-07-29T05:55:49;100548.81;;;18.34;100.00
64933;BME280;51446;53.850;10.662;2023-07-29T05:58:15;100554.00;;;18.41;100.00
64933;BME280;51446;53.850;10.662;2023-07-29T06:00:40;100558.41;;;18.42;100.00
64933;BME280;51446;53.850;10.662;2023-07-29T06:03:05;100554.75;;;18.47;100.00
64933;BME280;51446;53.850;10.662;2023-07-29T06:05:30;100551.50;;;18.33;100.00
64933;BME280;51446;53.850;10.662;2023-07-29T06:07:56;100553.13;;;18.40;100.00
64933;BME280;51446;53.850;10.662;2023-07-29T06:10:21;100546.88;;;18.44;100.00
64933;BME280;51446;53.850;10.662;2023-07-29T06:12:47;100531.38;;;18.65;100.00
64933;BME280;51446;53.850;10.662;2023-07-29T06:15:12;100527.06;;;19.00;100.00
64933;BME280;51446;53.850;10.662;2023-07-29T06:17:39;100532.91;;;19.17;100.00
64933;BME280;51446;53.850;10.662;2023-07-29T06:20:05;100523.97;;;19.20;100.00
64933;BME280;51446;53.850;10.662;2023-07-29T06:22:31;100520.03;;;19.36;100.00
64933;BME280;51446;53.850;10.662;2023-07-29T06:24:56;100510.22;;;19.38;100.00
64933;BME280;51446;53.850;10.662;2023-07-29T06:27:22;100517.22;;;19.42;100.00
64933;BME280;51446;53.850;10.662;2023-07-29T06:29:47;100520.69;;;19.46;100.00
64933;BME280;51446;53.850;10.662;2023-07-29T06:32:12;100533.41;;;19.33;100.00
64933;BME280;51446;53.850;10.662;2023-07-29T06:34:37;100522.38;;;19.49;100.00
64933;BME280;51446;53.850;10.662;2023-07-29T06:37:03;100504.94;;;19.71;100.00
64933;BME280;51446;53.850;10.662;2023-07-29T06:39:28;100501.84;;;20.53;100.00
64933;BME280;51446;53.850;10.662;2023-07-29T06:41:53;100495.75;;;21.34;100.00
64933;BME280;51446;53.850;10.662;2023-07-29T06:44:19;100482.44;;;21.61;100.00
64933;BME280;51446;53.850;10.662;2023-07-29T06:46:44;100476.97;;;21.64;100.00
64933;BME280;51446;53.850;10.662;2023-07-29T06:49:10;100477.34;;;21.53;100.00
64933;BME280;51446;53.850;10.662;2023-07-29T06:51:35;100478.16;;;21.28;100.00
64933;BME280;51446;53.850;10.662;2023-07-29T06:54:01;100481.59;;;21.59;100.00
64933;BME280;51446;53.850;10.662;2023-07-29T06:56:27;100466.94;;;21.96;100.00
64933;BME280;51446;53.850;10.662;2023-07-29T06:58:52;100474.19;;;21.92;100.00
64933;BME280;51446;53.850;10.662;2023-07-29T07:01:18;100470.25;;;22.51;100.00
64933;BME280;51446;53.850;10.662;2023-07-29T07:03:43;100475.09;;;22.64;100.00
64933;BME280;51446;53.850;10.662;2023-07-29T07:06:09;100471.97;;;22.29;100.00
64933;BME280;51446;53.850;10.662;2023-07-29T07:08:34;100471.38;;;22.21;100.00
64933;BME280;51446;53.850;10.662;2023-07-29T07:10:59;100477.75;;;21.41;100.00
64933;BME280;51446;53.850;10.662;2023-07-29T07:13:24;100475.63;;;21.24;100.00
64933;BME280;51446;53.850;10.662;2023-07-29T07:15:50;100468.38;;;21.27;100.00
64933;BME280;51446;53.850;10.662;2023-07-29T07:18:15;100472.41;;;21.41;100.00
64933;BME280;51446;53.850;10.662;2023-07-29T07:20:40;100469.63;;;21.71;100.00
64933;BME280;51446;53.850;10.662;2023-07-29T07:23:06;100479.22;;;22.02;100.00
64933;BME280;51446;53.850;10.662;2023-07-29T07:25:33;100462.16;;;22.06;100.00
64933;BME280;51446;53.850;10.662;2023-07-29T07:27:59;100454.25;;;22.03;100.00
64933;BME280;51446;53.850;10.662;2023-07-29T07:30:24;100448.38;;;21.93;100.00
64933;BME280;51446;53.850;10.662;2023-07-29T07:32:49;100437.44;;;22.24;100.00
64933;BME280;51446;53.850;10.662;2023-07-29T07:35:15;100449.53;;;22.80;100.00
64933;BME280;51446;53.850;10.662;2023-07-29T07:37:41;100449.50;;;22.58;100.00
64933;BME280;51446;53.850;10.662;2023-07-29T07:40:06;100449.53;;;23.45;100.00
64933;BME280;51446;53.850;10.662;2023-07-29T07:42:32;100455.44;;;23.95;100.00
64933;BME280;51446;53.850;10.662;2023-07-29T07:44:57;100450.78;;;24.19;100.00
64933;BME280;51446;53.850;10.662;2023-07-29T07:47:23;100448.09;;;24.19;100.00
64933;BME280;51446;53.850;10.662;2023-07-29T07:49:48;100448.69;;;23.00;100.00
64933;BME280;51446;53.850;10.662;2023-07-29T07:52:15;100466.75;;;22.49;100.00
64933;BME280;51446;53.850;10.662;2023-07-29T07:54:40;100465.50;;;22.11;100.00
64933;BME280;51446;53.850;10.662;2023-07-29T07:57:06;100466.47;;;22.33;100.00
64933;BME280;51446;53.850;10.662;2023-07-29T07:59:31;100468.59;;;22.24;100.00
64933;BME280;51446;53.850;10.662;2023-07-29T08:01:56;100453.06;;;22.35;100.00
64933;BME280;51446;53.850;10.662;2023-07-29T08:04:22;100446.97;;;22.30;100.00
64933;BME280;51446;53.850;10.662;2023-07-29T08:06:47;100451.25;;;21.87;100.00
64933;BME280;51446;53.850;10.662;2023-07-29T08:09:12;100452.03;;;21.65;100.00
64933;BME280;51446;53.850;10.662;2023-07-29T08:11:37;100457.88;;;21.49;100.00
64933;BME280;51446;53.850;10.662;2023-07-29T08:14:03;100455.28;;;21.21;100.00
64933;BME280;51446;53.850;10.662;2023-07-29T08:16:28;100453.75;;;21.14;100.00
64933;BME280;51446;53.850;10.662;2023-07-29T08:18:53;100454.97;;;21.04;100.00
64933;BME280;51446;53.850;10.662;2023-07-29T08:21:19;100458.75;;;20.96;100.00
64933;BME280;51446;53.850;10.662;2023-07-29T08:23:44;100450.50;;;21.04;100.00
64933;BME280;51446;53.850;10.662;2023-07-29T08:26:09;100463.38;;;21.45;100.00
64933;BME280;51446;53.850;10.662;2023-07-29T08:28:37;100453.78;;;21.66;100.00
64933;BME280;51446;53.850;10.662;2023-07-29T08:31:04;100454.31;;;21.76;100.00
64933;BME280;51446;53.850;10.662;2023-07-29T08:33:30;100448.56;;;22.35;100.00
64933;BME280;51446;53.850;10.662;2023-07-29T08:36:01;100449.09;;;22.69;100.00
64933;BME280;51446;53.850;10.662;2023-07-29T08:38:27;100452.09;;;22.60;100.00
64933;BME280;51446;53.850;10.662;2023-07-29T08:40:58;100449.09;;;22.69;100.00
64933;BME280;51446;53.850;10.662;2023-07-29T08:43:28;100447.47;;;22.17;100.00
64933;BME280;51446;53.850;10.662;2023-07-29T08:45:57;100448.88;;;21.54;100.00
64933;BME280;51446;53.850;10.662;2023-07-29T08:50:57;100460.97;;;21.37;100.00
64933;BME280;51446;53.850;10.662;2023-07-29T08:53:24;100460.88;;;20.85;100.00
64933;BME280;51446;53.850;10.662;2023-07-29T08:55:50;100454.81;;;20.80;100.00
64933;BME280;51446;53.850;10.662;2023-07-29T08:58:16;100460.88;;;20.55;100.00
64933;BME280;51446;53.850;10.662;2023-07-29T09:00:41;100461.31;;;20.41;100.00
64933;BME280;51446;53.850;10.662;2023-07-29T09:03:07;100473.25;;;20.28;100.00
64933;BME280;51446;53.850;10.662;2023-07-29T09:05:35;100473.44;;;20.22;100.00
64933;BME280;51446;53.850;10.662;2023-07-29T09:08:02;100470.56;;;20.28;100.00
64933;BME280;51446;53.850;10.662;2023-07-29T09:10:27;100466.34;;;20.21;100.00
64933;BME280;51446;53.850;10.662;2023-07-29T09:12:53;100471.47;;;20.28;100.00
64933;BME280;51446;53.850;10.662;2023-07-29T09:15:29;100461.28;;;20.43;100.00
64933;BME280;51446;53.850;10.662;2023-07-29T09:17:56;100457.06;;;20.64;100.00
64933;BME280;51446;53.850;10.662;2023-07-29T09:20:28;100457.84;;;20.98;100.00
64933;BME280;51446;53.850;10.662;2023-07-29T09:22:54;100455.75;;;21.61;100.00
64933;BME280;51446;53.850;10.662;2023-07-29T09:25:28;100447.91;;;22.05;100.00
64933;BME280;51446;53.850;10.662;2023-07-29T09:28:00;100437.94;;;22.10;100.00
64933;BME280;51446;53.850;10.662;2023-07-29T09:30:26;100438.28;;;22.25;100.00
64933;BME280;51446;53.850;10.662;2023-07-29T09:32:58;100446.69;;;22.39;100.00
64933;BME280;51446;53.850;10.662;2023-07-29T09:35:27;100432.75;;;22.29;100.00
64933;BME280;51446;53.850;10.662;2023-07-29T09:37:53;100434.91;;;21.71;100.00
64933;BME280;51446;53.850;10.662;2023-07-29T09:40:18;100435.47;;;21.28;100.00
64933;BME280;51446;53.850;10.662;2023-07-29T09:42:51;100441.09;;;21.21;100.00
64933;BME280;51446;53.850;10.662;2023-07-29T09:45:36;100429.44;;;21.48;100.00
64933;BME280;51446;53.850;10.662;2023-07-29T09:48:03;100440.50;;;21.38;100.00
64933;BME280;51446;53.850;10.662;2023-07-29T09:50:30;100451.59;;;21.25;100.00
64933;BME280;51446;53.850;10.662;2023-07-29T09:52:56;100442.28;;;21.64;100.00
64933;BME280;51446;53.850;10.662;2023-07-29T09:55:25;100434.38;;;21.86;100.00
64933;BME280;51446;53.850;10.662;2023-07-29T09:57:56;100426.06;;;21.94;100.00
64933;BME280;51446;53.850;10.662;2023-07-29T10:00:23;100428.84;;;21.91;100.00
64933;BME280;51446;53.850;10.662;2023-07-29T10:02:49;100422.19;;;22.50;100.00
64933;BME280;51446;53.850;10.662;2023-07-29T10:05:15;100415.75;;;23.43;100.00
64933;BME280;51446;53.850;10.662;2023-07-29T10:07:40;100408.91;;;23.97;100.00
64933;BME280;51446;53.850;10.662;2023-07-29T10:10:07;100414.75;;;23.66;100.00
64933;BME280;51446;53.850;10.662;2023-07-29T10:12:34;100407.44;;;23.90;100.00
64933;BME280;51446;53.850;10.662;2023-07-29T10:15:04;100406.63;;;25.01;100.00
64933;BME280;51446;53.850;10.662;2023-07-29T10:17:34;100414.66;;;25.88;100.00
64933;BME280;51446;53.850;10.662;2023-07-29T10:20:00;100408.91;;;25.96;100.00
64933;BME280;51446;53.850;10.662;2023-07-29T10:22:28;100405.28;;;25.79;100.00
64933;BME280;51446;53.850;10.662;2023-07-29T10:25:03;100406.84;;;25.50;100.00
64933;BME280;51446;53.850;10.662;2023-07-29T10:28:01;100407.09;;;24.74;100.00
64933;BME280;51446;53.850;10.662;2023-07-29T10:30:24;100405.63;;;25.73;100.00
64933;BME280;51446;53.850;10.662;2023-07-29T10:32:50;100407.34;;;26.73;100.00
64933;BME280;51446;53.850;10.662;2023-07-29T10:35:16;100399.06;;;25.26;100.00
64933;BME280;51446;53.850;10.662;2023-07-29T10:37:41;100394.84;;;25.91;100.00
64933;BME280;51446;53.850;10.662;2023-07-29T10:40:09;100413.22;;;26.64;100.00
64933;BME280;51446;53.850;10.662;2023-07-29T10:42:36;100407.41;;;27.18;100.00
64933;BME280;51446;53.850;10.662;2023-07-29T10:45:19;100410.66;;;27.09;100.00
64933;BME280;51446;53.850;10.662;2023-07-29T10:47:45;100406.56;;;25.72;100.00
64933;BME280;51446;53.850;10.662;2023-07-29T10:50:20;100406.94;;;25.31;100.00
64933;BME280;51446;53.850;10.662;2023-07-29T10:52:49;100405.78;;;25.00;100.00
64933;BME280;51446;53.850;10.662;2023-07-29T10:55:26;100396.13;;;25.50;100.00
64933;BME280;51446;53.850;10.662;2023-07-29T10:58:12;100403.38;;;25.66;100.00
64933;BME280;51446;53.850;10.662;2023-07-29T11:00:41;100384.69;;;24.56;100.00
64933;BME280;51446;53.850;10.662;2023-07-29T11:03:06;100393.06;;;24.86;100.00
64933;BME280;51446;53.850;10.662;2023-07-29T11:10:57;100390.34;;;25.23;100.00
64933;BME280;51446;53.850;10.662;2023-07-29T11:13:23;100382.06;;;25.45;100.00
64933;BME280;51446;53.850;10.662;2023-07-29T11:15:51;100374.97;;;26.59;100.00
64933;BME280;51446;53.850;10.662;2023-07-29T11:18:20;100377.41;;;27.40;100.00
64933;BME280;51446;53.850;10.662;2023-07-29T11:20:46;100373.84;;;26.79;100.00
64933;BME280;51446;53.850;10.662;2023-07-29T11:23:11;100374.28;;;26.71;100.00
64933;BME280;51446;53.850;10.662;2023-07-29T11:25:36;100373.75;;;25.50;100.00
64933;BME280;51446;53.850;10.662;2023-07-29T11:28:03;100373.31;;;25.75;100.00
64933;BME280;51446;53.850;10.662;2023-07-29T11:30:28;100363.00;;;25.67;100.00
64933;BME280;51446;53.850;10.662;2023-07-29T11:32:58;100365.34;;;26.07;100.00
64933;BME280;51446;53.850;10.662;2023-07-29T11:35:23;100361.84;;;25.89;100.00
64933;BME280;51446;53.850;10.662;2023-07-29T11:37:51;100365.72;;;25.83;100.00
64933;BME280;51446;53.850;10.662;2023-07-29T11:40:21;100361.38;;;25.30;100.00
64933;BME280;51446;53.850;10.662;2023-07-29T11:42:47;100370.28;;;25.13;100.00
64933;BME280;51446;53.850;10.662;2023-07-29T11:45:14;100363.50;;;25.23;100.00
64933;BME280;51446;53.850;10.662;2023-07-29T11:47:40;100368.16;;;25.02;100.00
64933;BME280;51446;53.850;10.662;2023-07-29T11:50:07;100360.41;;;25.31;100.00
64933;BME280;51446;53.850;10.662;2023-07-29T11:52:35;100372.72;;;25.00;100.00
64933;BME280;51446;53.850;10.662;2023-07-29T11:55:02;100358.22;;;25.21;100.00
64933;BME280;51446;53.850;10.662;2023-07-29T11:57:28;100364.28;;;25.07;100.00
64933;BME280;51446;53.850;10.662;2023-07-29T11:59:54;100364.00;;;25.31;100.00
64933;BME280;51446;53.850;10.662;2023-07-29T12:02:20;100371.16;;;25.48;100.00
64933;BME280;51446;53.850;10.662;2023-07-29T12:04:47;100369.72;;;25.23;100.00
64933;BME280;51446;53.850;10.662;2023-07-29T12:07:14;100368.78;;;24.89;100.00
64933;BME280;51446;53.850;10.662;2023-07-29T12:09:41;100373.75;;;25.15;100.00
64933;BME280;51446;53.850;10.662;2023-07-29T12:12:07;100372.47;;;24.87;100.00
64933;BME280;51446;53.850;10.662;2023-07-29T12:14:33;100369.47;;;24.93;100.00
64933;BME280;51446;53.850;10.662;2023-07-29T12:17:00;100372.31;;;24.90;100.00
64933;BME280;51446;53.850;10.662;2023-07-29T12:19:35;100376.91;;;25.05;100.00
64933;BME280;51446;53.850;10.662;2023-07-29T12:22:05;100377.59;;;24.55;100.00
64933;BME280;51446;53.850;10.662;2023-07-29T12:24:32;100373.78;;;24.61;100.00
64933;BME280;51446;53.850;10.662;2023-07-29T12:26:59;100376.94;;;24.50;100.00
64933;BME280;51446;53.850;10.662;2023-07-29T12:29:24;100374.03;;;23.58;100.00
64933;BME280;51446;53.850;10.662;2023-07-29T12:31:57;100371.00;;;23.86;100.00
64933;BME280;51446;53.850;10.662;2023-07-29T12:34:25;100382.81;;;23.61;100.00
64933;BME280;51446;53.850;10.662;2023-07-29T12:36:52;100371.59;;;23.93;100.00
64933;BME280;51446;53.850;10.662;2023-07-29T12:39:23;100377.19;;;24.45;100.00